sensor_id;sensor_type;location;lat;lon;timestamp;P1;durP1;ratioP1;P2;durP2;ratioP2
41875;SDS011;27555;50.808;4.402;2023-06-22T00:01:50;7.32;;;3.00;;
41875;SDS011;27555;50.808;4.402;2023-06-22T00:04:16;4.63;;;2.60;;
41875;SDS011;27555;50.808;4.402;2023-06-22T00:06:41;5.90;;;2.80;;
41875;SDS011;27555;50.808;4.402;2023-06-22T00:09:07;4.47;;;2.70;;
41875;SDS011;27555;50.808;4.402;2023-06-22T00:11:33;7.85;;;2.95;;
41875;SDS011;27555;50.808;4.402;2023-06-22T00:14:02;4.32;;;2.40;;
41875;SDS011;27555;50.808;4.402;2023-06-22T00:16:28;3.70;;;2.28;;
41875;SDS011;27555;50.808;4.402;2023-06-22T00:18:53;6.15;;;2.20;;
41875;SDS011;27555;50.808;4.402;2023-06-22T00:21:19;4.05;;;2.42;;
41875;SDS011;27555;50.808;4.402;2023-06-22T00:23:45;5.15;;;2.60;;
41875;SDS011;27555;50.808;4.402;2023-06-22T00:26:12;3.92;;;2.20;;
41875;SDS011;27555;50.808;4.402;2023-06-22T00:28:38;4.90;;;2.00;;
41875;SDS011;27555;50.808;4.402;2023-06-22T00:31:04;3.03;;;2.00;;
41875;SDS011;27555;50.808;4.402;2023-06-22T00:33:29;5.10;;;2.25;;
41875;SDS011;27555;50.808;4.402;2023-06-22T00:35:55;5.07;;;2.25;;
41875;SDS011;27555;50.808;4.402;2023-06-22T00:38:20;6.00;;;2.55;;
41875;SDS011;27555;50.808;4.402;2023-06-22T00:40:46;2.97;;;1.83;;
41875;SDS011;27555;50.808;4.402;2023-06-22T00:43:11;6.00;;;2.25;;
41875;SDS011;27555;50.808;4.402;2023-06-22T00:45:37;3.13;;;2.10;;
41875;SDS011;27555;50.808;4.402;2023-06-22T00:48:03;5.22;;;2.35;;
41875;SDS011;27555;50.808;4.402;2023-06-22T00:50:30;4.65;;;2.00;;
41875;SDS011;27555;50.808;4.402;2023-06-22T00:53:03;3.90;;;2.45;;
41875;SDS011;27555;50.808;4.402;2023-06-22T00:55:36;3.78;;;2.47;;
41875;SDS011;27555;50.808;4.402;2023-06-22T00:58:10;3.80;;;1.88;;
41875;SDS011;27555;50.808;4.402;2023-06-22T01:00:37;3.53;;;2.42;;
41875;SDS011;27555;50.808;4.402;2023-06-22T01:03:03;4.10;;;2.38;;
41875;SDS011;27555;50.808;4.402;2023-06-22T01:08:12;5.43;;;2.58;;
41875;SDS011;27555;50.808;4.402;2023-06-22T01:10:48;4.45;;;2.45;;
41875;SDS011;27555;50.808;4.402;2023-06-22T01:14:12;4.97;;;2.42;;
41875;SDS011;27555;50.808;4.402;2023-06-22T01:16:23;5.13;;;2.60;;
41875;SDS011;27555;50.808;4.402;2023-06-22T01:18:52;6.95;;;2.60;;
41875;SDS011;27555;50.808;4.402;2023-06-22T01:21:21;4.45;;;2.42;;
41875;SDS011;27555;50.808;4.402;2023-06-22T01:29:01;4.68;;;2.78;;
41875;SDS011;27555;50.808;4.402;2023-06-22T01:31:30;6.03;;;2.65;;
41875;SDS011;27555;50.808;4.402;2023-06-22T01:33:59;4.97;;;2.42;;
41875;SDS011;27555;50.808;4.402;2023-06-22T01:36:27;4.50;;;2.70;;
41875;SDS011;27555;50.808;4.402;2023-06-22T01:38:54;6.70;;;2.80;;
41875;SDS011;27555;50.808;4.402;2023-06-22T01:41:21;8.30;;;2.67;;
41875;SDS011;27555;50.808;4.402;2023-06-22T01:43:49;3.72;;;2.58;;
41875;SDS011;27555;50.808;4.402;2023-06-22T01:46:16;4.28;;;2.70;;
41875;SDS011;27555;50.808;4.402;2023-06-22T01:48:44;4.68;;;2.97;;
41875;SDS011;27555;50.808;4.402;2023-06-22T01:51:11;4.93;;;2.78;;
41875;SDS011;27555;50.808;4.402;2023-06-22T01:53:37;6.55;;;2.70;;
41875;SDS011;27555;50.808;4.402;2023-06-22T01:56:02;12.77;;;3.20;;
41875;SDS011;27555;50.808;4.402;2023-06-22T01:58:29;5.05;;;2.67;;
41875;SDS011;27555;50.808;4.402;2023-06-22T02:00:59;5.68;;;2.78;;
41875;SDS011;27555;50.808;4.402;2023-06-22T02:03:34;7.15;;;3.28;;
41875;SDS011;27555;50.808;4.402;2023-06-22T02:06:19;9.13;;;2.58;;
41875;SDS011;27555;50.808;4.402;2023-06-22T02:08:49;4.78;;;3.00;;
41875;SDS011;27555;50.808;4.402;2023-06-22T02:11:20;4.97;;;3.63;;
41875;SDS011;27555;50.808;4.402;2023-06-22T02:13:47;5.90;;;3.38;;
41875;SDS011;27555;50.808;4.402;2023-06-22T02:16:14;8.45;;;3.50;;
41875;SDS011;27555;50.808;4.402;2023-06-22T02:18:48;4.25;;;2.90;;
41875;SDS011;27555;50.808;4.402;2023-06-22T02:21:17;5.72;;;3.03;;
41875;SDS011;27555;50.808;4.402;2023-06-22T02:23:43;6.32;;;3.67;;
41875;SDS011;27555;50.808;4.402;2023-06-22T02:26:09;8.48;;;4.03;;
41875;SDS011;27555;50.808;4.402;2023-06-22T02:28:35;6.32;;;3.60;;
41875;SDS011;27555;50.808;4.402;2023-06-22T02:31:00;12.88;;;4.18;;
41875;SDS011;27555;50.808;4.402;2023-06-22T02:33:26;5.13;;;3.42;;
41875;SDS011;27555;50.808;4.402;2023-06-22T02:35:52;6.57;;;4.05;;
41875;SDS011;27555;50.808;4.402;2023-06-22T02:38:18;6.43;;;3.55;;
41875;SDS011;27555;50.808;4.402;2023-06-22T02:40:45;10.07;;;4.25;;
41875;SDS011;27555;50.808;4.402;2023-06-22T02:43:10;5.78;;;3.78;;
41875;SDS011;27555;50.808;4.402;2023-06-22T02:45:36;5.82;;;3.63;;
41875;SDS011;27555;50.808;4.402;2023-06-22T02:48:01;8.82;;;3.75;;
41875;SDS011;27555;50.808;4.402;2023-06-22T02:50:27;8.75;;;3.95;;
41875;SDS011;27555;50.808;4.402;2023-06-22T02:52:53;6.28;;;3.55;;
41875;SDS011;27555;50.808;4.402;2023-06-22T02:55:18;8.50;;;4.20;;
41875;SDS011;27555;50.808;4.402;2023-06-22T02:57:44;7.22;;;3.90;;
41875;SDS011;27555;50.808;4.402;2023-06-22T03:00:11;7.28;;;3.05;;
41875;SDS011;27555;50.808;4.402;2023-06-22T03:02:47;5.35;;;3.38;;
41875;SDS011;27555;50.808;4.402;2023-06-22T03:05:13;6.07;;;4.13;;
41875;SDS011;27555;50.808;4.402;2023-06-22T03:07:40;7.07;;;3.90;;
41875;SDS011;27555;50.808;4.402;2023-06-22T03:10:07;5.68;;;3.42;;
41875;SDS011;27555;50.808;4.402;2023-06-22T03:12:37;11.55;;;4.10;;
41875;SDS011;27555;50.808;4.402;2023-06-22T03:15:06;5.05;;;3.53;;
41875;SDS011;27555;50.808;4.402;2023-06-22T03:17:34;7.25;;;3.42;;
41875;SDS011;27555;50.808;4.402;2023-06-22T03:20:00;7.28;;;4.00;;
41875;SDS011;27555;50.808;4.402;2023-06-22T03:22:26;8.23;;;4.60;;
41875;SDS011;27555;50.808;4.402;2023-06-22T03:24:51;8.90;;;5.15;;
41875;SDS011;27555;50.808;4.402;2023-06-22T03:27:17;7.72;;;3.63;;
41875;SDS011;27555;50.808;4.402;2023-06-22T03:29:43;5.72;;;3.92;;
41875;SDS011;27555;50.808;4.402;2023-06-22T03:32:09;8.10;;;3.50;;
41875;SDS011;27555;50.808;4.402;2023-06-22T03:34:35;6.43;;;4.25;;
41875;SDS011;27555;50.808;4.402;2023-06-22T03:37:01;8.13;;;4.57;;
41875;SDS011;27555;50.808;4.402;2023-06-22T03:39:26;5.80;;;4.18;;
41875;SDS011;27555;50.808;4.402;2023-06-22T03:41:52;7.63;;;4.18;;
41875;SDS011;27555;50.808;4.402;2023-06-22T03:44:18;6.07;;;4.15;;
41875;SDS011;27555;50.808;4.402;2023-06-22T03:46:44;7.13;;;4.55;;
41875;SDS011;27555;50.808;4.402;2023-06-22T03:49:09;10.40;;;5.10;;
41875;SDS011;27555;50.808;4.402;2023-06-22T03:51:35;7.50;;;4.72;;
41875;SDS011;27555;50.808;4.402;2023-06-22T03:54:00;9.82;;;4.50;;
41875;SDS011;27555;50.808;4.402;2023-06-22T03:56:26;9.18;;;4.25;;
41875;SDS011;27555;50.808;4.402;2023-06-22T03:58:52;6.60;;;4.18;;
41875;SDS011;27555;50.808;4.402;2023-06-22T04:01:18;6.32;;;4.13;;
41875;SDS011;27555;50.808;4.402;2023-06-22T04:03:43;6.75;;;4.43;;
41875;SDS011;27555;50.808;4.402;2023-06-22T04:06:09;6.30;;;4.15;;
41875;SDS011;27555;50.808;4.402;2023-06-22T04:08:35;6.72;;;3.92;;
41875;SDS011;27555;50.808;4.402;2023-06-22T04:11:00;9.05;;;3.95;;
41875;SDS011;27555;50.808;4.402;2023-06-22T04:13:26;6.97;;;4.50;;
41875;SDS011;27555;50.808;4.402;2023-06-22T04:15:52;8.98;;;4.45;;
41875;SDS011;27555;50.808;4.402;2023-06-22T04:18:17;6.40;;;4.13;;
41875;SDS011;27555;50.808;4.402;2023-06-22T04:20:43;5.50;;;3.88;;
41875;SDS011;27555;50.808;4.402;2023-06-22T04:23:12;7.53;;;4.00;;
41875;SDS011;27555;50.808;4.402;2023-06-22T04:25:37;5.25;;;3.88;;
41875;SDS011;27555;50.808;4.402;2023-06-22T04:28:04;6.13;;;4.57;;
41875;SDS011;27555;50.808;4.402;2023-06-22T04:30:29;11.13;;;4.53;;
41875;SDS011;27555;50.808;4.402;2023-06-22T04:32:57;8.10;;;4.95;;
41875;SDS011;27555;50.808;4.402;2023-06-22T04:35:23;8.00;;;4.75;;
41875;SDS011;27555;50.808;4.402;2023-06-22T04:37:49;6.20;;;4.28;;
41875;SDS011;27555;50.808;4.402;2023-06-22T04:40:15;6.57;;;4.18;;
41875;SDS011;27555;50.808;4.402;2023-06-22T04:42:41;8.88;;;4.75;;
41875;SDS011;27555;50.808;4.402;2023-06-22T04:45:17;7.82;;;4.80;;
41875;SDS011;27555;50.808;4.402;2023-06-22T04:47:42;7.05;;;4.68;;
41875;SDS011;27555;50.808;4.402;2023-06-22T04:50:10;8.00;;;4.63;;
41875;SDS011;27555;50.808;4.402;2023-06-22T04:52:38;9.48;;;4.85;;
41875;SDS011;27555;50.808;4.402;2023-06-22T04:55:04;10.27;;;5.10;;
41875;SDS011;27555;50.808;4.402;2023-06-22T04:57:30;8.32;;;5.30;;
41875;SDS011;27555;50.808;4.402;2023-06-22T04:59:59;10.43;;;5.53;;
41875;SDS011;27555;50.808;4.402;2023-06-22T05:02:37;11.85;;;6.63;;
41875;SDS011;27555;50.808;4.402;2023-06-22T05:05:06;10.10;;;6.47;;
41875;SDS011;27555;50.808;4.402;2023-06-22T05:07:35;10.27;;;6.82;;
41875;SDS011;27555;50.808;4.402;2023-06-22T05:10:04;14.32;;;7.00;;
41875;SDS011;27555;50.808;4.402;2023-06-22T05:12:30;16.03;;;7.43;;
41875;SDS011;27555;50.808;4.402;2023-06-22T05:14:56;13.65;;;8.15;;
41875;SDS011;27555;50.808;4.402;2023-06-22T05:17:22;9.32;;;6.38;;
41875;SDS011;27555;50.808;4.402;2023-06-22T05:19:47;11.43;;;7.15;;
41875;SDS011;27555;50.808;4.402;2023-06-22T05:22:16;19.70;;;9.43;;
41875;SDS011;27555;50.808;4.402;2023-06-22T05:24:42;13.68;;;8.40;;
41875;SDS011;27555;50.808;4.402;2023-06-22T05:27:09;13.95;;;8.52;;
41875;SDS011;27555;50.808;4.402;2023-06-22T05:29:35;16.35;;;8.82;;
41875;SDS011;27555;50.808;4.402;2023-06-22T05:32:02;14.77;;;8.77;;
41875;SDS011;27555;50.808;4.402;2023-06-22T05:34:28;16.48;;;10.10;;
41875;SDS011;27555;50.808;4.402;2023-06-22T05:36:53;21.00;;;10.57;;
41875;SDS011;27555;50.808;4.402;2023-06-22T05:39:19;14.05;;;9.65;;
41875;SDS011;27555;50.808;4.402;2023-06-22T05:41:45;17.50;;;10.13;;
41875;SDS011;27555;50.808;4.402;2023-06-22T05:44:11;15.63;;;10.20;;
41875;SDS011;27555;50.808;4.402;2023-06-22T05:46:37;14.10;;;9.95;;
41875;SDS011;27555;50.808;4.402;2023-06-22T05:49:09;19.85;;;10.70;;
41875;SDS011;27555;50.808;4.402;2023-06-22T05:51:35;19.02;;;11.05;;
41875;SDS011;27555;50.808;4.402;2023-06-22T05:54:00;21.90;;;10.60;;
41875;SDS011;27555;50.808;4.402;2023-06-22T05:56:26;16.15;;;10.27;;
41875;SDS011;27555;50.808;4.402;2023-06-22T05:58:51;16.67;;;11.30;;
41875;SDS011;27555;50.808;4.402;2023-06-22T06:01:18;19.65;;;10.57;;
41875;SDS011;27555;50.808;4.402;2023-06-22T06:03:44;20.15;;;12.02;;
41875;SDS011;27555;50.808;4.402;2023-06-22T06:06:09;16.25;;;10.85;;
41875;SDS011;27555;50.808;4.402;2023-06-22T06:08:36;17.08;;;10.52;;
41875;SDS011;27555;50.808;4.402;2023-06-22T06:11:04;17.95;;;10.15;;
41875;SDS011;27555;50.808;4.402;2023-06-22T06:13:30;17.63;;;9.35;;
41875;SDS011;27555;50.808;4.402;2023-06-22T06:15:56;18.38;;;10.57;;
41875;SDS011;27555;50.808;4.402;2023-06-22T06:18:22;16.05;;;8.98;;
41875;SDS011;27555;50.808;4.402;2023-06-22T06:20:48;13.25;;;8.85;;
41875;SDS011;27555;50.808;4.402;2023-06-22T06:23:14;16.90;;;9.75;;
41875;SDS011;27555;50.808;4.402;2023-06-22T06:25:39;17.63;;;10.52;;
41875;SDS011;27555;50.808;4.402;2023-06-22T06:28:05;15.38;;;9.13;;
41875;SDS011;27555;50.808;4.402;2023-06-22T06:30:31;19.55;;;8.77;;
41875;SDS011;27555;50.808;4.402;2023-06-22T06:32:56;18.05;;;10.45;;
41875;SDS011;27555;50.808;4.402;2023-06-22T06:35:22;19.25;;;10.73;;
41875;SDS011;27555;50.808;4.402;2023-06-22T06:37:48;21.30;;;10.70;;
41875;SDS011;27555;50.808;4.402;2023-06-22T06:40:16;18.38;;;10.60;;
41875;SDS011;27555;50.808;4.402;2023-06-22T06:42:43;23.13;;;10.95;;
41875;SDS011;27555;50.808;4.402;2023-06-22T06:45:10;15.45;;;10.43;;
41875;SDS011;27555;50.808;4.402;2023-06-22T06:47:36;15.98;;;10.18;;
41875;SDS011;27555;50.808;4.402;2023-06-22T06:50:02;24.05;;;11.02;;
41875;SDS011;27555;50.808;4.402;2023-06-22T06:52:29;18.60;;;9.85;;
41875;SDS011;27555;50.808;4.402;2023-06-22T06:54:54;16.05;;;9.82;;
41875;SDS011;27555;50.808;4.402;2023-06-22T06:57:20;19.92;;;10.43;;
41875;SDS011;27555;50.808;4.402;2023-06-22T06:59:46;19.27;;;10.38;;
41875;SDS011;27555;50.808;4.402;2023-06-22T07:02:11;18.50;;;11.15;;
41875;SDS011;27555;50.808;4.402;2023-06-22T07:04:37;15.32;;;10.45;;
41875;SDS011;27555;50.808;4.402;2023-06-22T07:07:03;18.55;;;10.25;;
41875;SDS011;27555;50.808;4.402;2023-06-22T07:09:28;16.58;;;11.50;;
41875;SDS011;27555;50.808;4.402;2023-06-22T07:11:54;14.75;;;10.65;;
41875;SDS011;27555;50.808;4.402;2023-06-22T07:14:19;18.00;;;11.40;;
41875;SDS011;27555;50.808;4.402;2023-06-22T07:16:45;21.40;;;12.00;;
41875;SDS011;27555;50.808;4.402;2023-06-22T07:19:11;15.60;;;10.35;;
41875;SDS011;27555;50.808;4.402;2023-06-22T07:21:37;16.88;;;11.05;;
41875;SDS011;27555;50.808;4.402;2023-06-22T07:24:04;14.90;;;9.93;;
41875;SDS011;27555;50.808;4.402;2023-06-22T07:26:31;14.48;;;9.93;;
41875;SDS011;27555;50.808;4.402;2023-06-22T07:28:57;14.43;;;9.48;;
41875;SDS011;27555;50.808;4.402;2023-06-22T07:31:25;14.52;;;9.25;;
41875;SDS011;27555;50.808;4.402;2023-06-22T07:33:51;13.93;;;9.85;;
41875;SDS011;27555;50.808;4.402;2023-06-22T07:36:17;15.63;;;10.05;;
41875;SDS011;27555;50.808;4.402;2023-06-22T07:38:43;13.05;;;8.65;;
41875;SDS011;27555;50.808;4.402;2023-06-22T07:41:09;19.60;;;9.43;;
41875;SDS011;27555;50.808;4.402;2023-06-22T07:43:34;14.25;;;9.73;;
41875;SDS011;27555;50.808;4.402;2023-06-22T07:46:02;15.82;;;10.10;;
41875;SDS011;27555;50.808;4.402;2023-06-22T07:48:28;15.25;;;9.95;;
41875;SDS011;27555;50.808;4.402;2023-06-22T07:50:54;15.50;;;10.18;;
41875;SDS011;27555;50.808;4.402;2023-06-22T07:53:21;15.93;;;10.18;;
41875;SDS011;27555;50.808;4.402;2023-06-22T07:55:48;14.07;;;9.35;;
41875;SDS011;27555;50.808;4.402;2023-06-22T07:58:13;16.08;;;10.30;;
41875;SDS011;27555;50.808;4.402;2023-06-22T08:00:40;22.67;;;10.48;;
41875;SDS011;27555;50.808;4.402;2023-06-22T08:03:06;19.45;;;10.07;;
41875;SDS011;27555;50.808;4.402;2023-06-22T08:05:32;16.35;;;9.85;;
41875;SDS011;27555;50.808;4.402;2023-06-22T08:07:57;19.15;;;9.85;;
41875;SDS011;27555;50.808;4.402;2023-06-22T08:10:23;12.10;;;9.15;;
41875;SDS011;27555;50.808;4.402;2023-06-22T08:12:49;13.63;;;9.32;;
41875;SDS011;27555;50.808;4.402;2023-06-22T08:15:15;11.98;;;8.52;;
41875;SDS011;27555;50.808;4.402;2023-06-22T08:17:40;16.05;;;9.73;;
41875;SDS011;27555;50.808;4.402;2023-06-22T08:20:06;13.30;;;8.57;;
41875;SDS011;27555;50.808;4.402;2023-06-22T08:22:39;13.77;;;9.10;;
41875;SDS011;27555;50.808;4.402;2023-06-22T08:25:06;16.40;;;9.52;;
41875;SDS011;27555;50.808;4.402;2023-06-22T08:27:32;13.57;;;9.30;;
41875;SDS011;27555;50.808;4.402;2023-06-22T08:29:58;13.85;;;8.98;;
41875;SDS011;27555;50.808;4.402;2023-06-22T08:32:25;11.63;;;8.82;;
41875;SDS011;27555;50.808;4.402;2023-06-22T08:34:54;17.38;;;8.45;;
41875;SDS011;27555;50.808;4.402;2023-06-22T08:37:21;18.27;;;9.38;;
41875;SDS011;27555;50.808;4.402;2023-06-22T08:39:55;14.40;;;10.00;;
41875;SDS011;27555;50.808;4.402;2023-06-22T08:42:24;17.05;;;10.00;;
41875;SDS011;27555;50.808;4.402;2023-06-22T08:44:50;19.08;;;10.90;;
41875;SDS011;27555;50.808;4.402;2023-06-22T08:47:16;16.30;;;10.35;;
41875;SDS011;27555;50.808;4.402;2023-06-22T08:49:42;18.38;;;9.32;;
41875;SDS011;27555;50.808;4.402;2023-06-22T08:52:07;15.85;;;9.98;;
41875;SDS011;27555;50.808;4.402;2023-06-22T08:54:33;19.30;;;10.27;;
41875;SDS011;27555;50.808;4.402;2023-06-22T08:57:00;14.20;;;9.63;;
41875;SDS011;27555;50.808;4.402;2023-06-22T08:59:26;13.90;;;9.98;;
41875;SDS011;27555;50.808;4.402;2023-06-22T09:01:52;12.20;;;8.63;;
41875;SDS011;27555;50.808;4.402;2023-06-22T09:04:18;12.60;;;9.05;;
41875;SDS011;27555;50.808;4.402;2023-06-22T09:06:43;14.00;;;8.82;;
41875;SDS011;27555;50.808;4.402;2023-06-22T09:09:12;15.65;;;9.30;;
41875;SDS011;27555;50.808;4.402;2023-06-22T09:11:38;11.38;;;8.48;;
41875;SDS011;27555;50.808;4.402;2023-06-22T09:14:03;13.13;;;8.35;;
41875;SDS011;27555;50.808;4.402;2023-06-22T09:16:29;12.80;;;8.27;;
41875;SDS011;27555;50.808;4.402;2023-06-22T09:18:55;12.68;;;8.75;;
41875;SDS011;27555;50.808;4.402;2023-06-22T09:21:21;11.13;;;8.80;;
41875;SDS011;27555;50.808;4.402;2023-06-22T09:23:46;16.23;;;9.38;;
41875;SDS011;27555;50.808;4.402;2023-06-22T09:26:16;12.88;;;9.35;;
41875;SDS011;27555;50.808;4.402;2023-06-22T09:28:45;16.03;;;8.63;;
41875;SDS011;27555;50.808;4.402;2023-06-22T09:31:11;12.45;;;8.75;;
41875;SDS011;27555;50.808;4.402;2023-06-22T09:33:36;16.90;;;9.65;;
41875;SDS011;27555;50.808;4.402;2023-06-22T09:36:06;14.73;;;9.87;;
41875;SDS011;27555;50.808;4.402;2023-06-22T09:38:35;23.02;;;12.60;;
41875;SDS011;27555;50.808;4.402;2023-06-22T09:41:03;20.95;;;11.43;;
41875;SDS011;27555;50.808;4.402;2023-06-22T09:43:30;20.80;;;12.15;;
41875;SDS011;27555;50.808;4.402;2023-06-22T09:45:57;14.00;;;9.60;;
41875;SDS011;27555;50.808;4.402;2023-06-22T09:48:23;24.70;;;12.10;;
41875;SDS011;27555;50.808;4.402;2023-06-22T09:50:48;21.83;;;12.73;;
41875;SDS011;27555;50.808;4.402;2023-06-22T09:53:14;16.35;;;10.07;;
41875;SDS011;27555;50.808;4.402;2023-06-22T09:55:40;15.70;;;10.13;;
41875;SDS011;27555;50.808;4.402;2023-06-22T09:58:05;17.92;;;11.55;;
41875;SDS011;27555;50.808;4.402;2023-06-22T10:00:31;18.00;;;12.43;;
41875;SDS011;27555;50.808;4.402;2023-06-22T10:02:57;19.83;;;11.23;;
41875;SDS011;27555;50.808;4.402;2023-06-22T10:05:22;18.38;;;11.88;;
41875;SDS011;27555;50.808;4.402;2023-06-22T10:07:49;17.25;;;11.48;;
41875;SDS011;27555;50.808;4.402;2023-06-22T10:10:15;41.50;;;14.43;;
41875;SDS011;27555;50.808;4.402;2023-06-22T10:12:41;16.58;;;11.45;;
41875;SDS011;27555;50.808;4.402;2023-06-22T10:15:09;19.38;;;11.60;;
41875;SDS011;27555;50.808;4.402;2023-06-22T10:17:35;19.10;;;12.02;;
41875;SDS011;27555;50.808;4.402;2023-06-22T10:20:00;18.52;;;11.32;;
41875;SDS011;27555;50.808;4.402;2023-06-22T10:22:36;15.95;;;10.27;;
41875;SDS011;27555;50.808;4.402;2023-06-22T10:25:02;19.58;;;11.68;;
41875;SDS011;27555;50.808;4.402;2023-06-22T10:27:28;20.63;;;10.30;;
41875;SDS011;27555;50.808;4.402;2023-06-22T10:29:53;14.30;;;9.93;;
41875;SDS011;27555;50.808;4.402;2023-06-22T10:32:19;18.23;;;11.07;;
41875;SDS011;27555;50.808;4.402;2023-06-22T10:34:45;17.95;;;11.18;;
41875;SDS011;27555;50.808;4.402;2023-06-22T10:37:10;16.90;;;11.32;;
41875;SDS011;27555;50.808;4.402;2023-06-22T10:39:36;19.23;;;10.35;;
41875;SDS011;27555;50.808;4.402;2023-06-22T10:42:02;16.30;;;11.13;;
41875;SDS011;27555;50.808;4.402;2023-06-22T10:44:27;15.63;;;11.93;;
41875;SDS011;27555;50.808;4.402;2023-06-22T10:46:53;19.42;;;11.43;;
41875;SDS011;27555;50.808;4.402;2023-06-22T10:49:18;15.98;;;9.93;;
41875;SDS011;27555;50.808;4.402;2023-06-22T10:51:44;15.27;;;11.75;;
41875;SDS011;27555;50.808;4.402;2023-06-22T10:54:10;22.15;;;11.95;;
41875;SDS011;27555;50.808;4.402;2023-06-22T10:56:35;17.50;;;12.30;;
41875;SDS011;27555;50.808;4.402;2023-06-22T10:59:01;17.08;;;11.77;;
41875;SDS011;27555;50.808;4.402;2023-06-22T11:01:26;18.05;;;12.52;;
41875;SDS011;27555;50.808;4.402;2023-06-22T11:03:53;18.38;;;12.73;;
41875;SDS011;27555;50.808;4.402;2023-06-22T11:06:18;17.48;;;11.73;;
41875;SDS011;27555;50.808;4.402;2023-06-22T11:08:44;15.18;;;11.15;;
41875;SDS011;27555;50.808;4.402;2023-06-22T11:11:10;17.83;;;12.95;;
41875;SDS011;27555;50.808;4.402;2023-06-22T11:13:36;19.52;;;13.23;;
41875;SDS011;27555;50.808;4.402;2023-06-22T11:16:01;22.23;;;14.68;;
41875;SDS011;27555;50.808;4.402;2023-06-22T11:18:27;21.52;;;13.07;;
41875;SDS011;27555;50.808;4.402;2023-06-22T11:20:52;21.42;;;15.38;;
41875;SDS011;27555;50.808;4.402;2023-06-22T11:23:18;25.33;;;14.88;;
41875;SDS011;27555;50.808;4.402;2023-06-22T11:25:44;24.77;;;16.00;;
41875;SDS011;27555;50.808;4.402;2023-06-22T11:28:11;20.83;;;14.98;;
41875;SDS011;27555;50.808;4.402;2023-06-22T11:30:37;21.27;;;16.40;;
41875;SDS011;27555;50.808;4.402;2023-06-22T11:33:02;24.50;;;15.93;;
41875;SDS011;27555;50.808;4.402;2023-06-22T11:35:28;18.30;;;13.88;;
41875;SDS011;27555;50.808;4.402;2023-06-22T11:37:53;19.30;;;14.57;;
41875;SDS011;27555;50.808;4.402;2023-06-22T11:40:21;24.13;;;16.17;;
41875;SDS011;27555;50.808;4.402;2023-06-22T11:42:47;23.65;;;16.08;;
41875;SDS011;27555;50.808;4.402;2023-06-22T11:45:13;26.20;;;16.60;;
41875;SDS011;27555;50.808;4.402;2023-06-22T11:47:39;23.15;;;14.95;;
41875;SDS011;27555;50.808;4.402;2023-06-22T11:50:04;25.02;;;15.98;;
41875;SDS011;27555;50.808;4.402;2023-06-22T11:52:31;19.02;;;14.70;;
41875;SDS011;27555;50.808;4.402;2023-06-22T11:54:56;24.27;;;16.17;;
41875;SDS011;27555;50.808;4.402;2023-06-22T11:57:24;27.15;;;16.25;;
41875;SDS011;27555;50.808;4.402;2023-06-22T11:59:49;18.42;;;14.55;;
41875;SDS011;27555;50.808;4.402;2023-06-22T12:02:15;41.40;;;14.82;;
41875;SDS011;27555;50.808;4.402;2023-06-22T12:04:40;19.48;;;13.65;;
41875;SDS011;27555;50.808;4.402;2023-06-22T12:07:06;20.67;;;14.55;;
41875;SDS011;27555;50.808;4.402;2023-06-22T12:09:32;26.08;;;15.88;;
41875;SDS011;27555;50.808;4.402;2023-06-22T12:11:58;20.52;;;14.65;;
41875;SDS011;27555;50.808;4.402;2023-06-22T12:14:23;19.98;;;13.85;;
41875;SDS011;27555;50.808;4.402;2023-06-22T12:16:49;19.98;;;14.43;;
41875;SDS011;27555;50.808;4.402;2023-06-22T12:19:14;22.73;;;13.70;;
41875;SDS011;27555;50.808;4.402;2023-06-22T12:21:40;20.02;;;14.65;;
41875;SDS011;27555;50.808;4.402;2023-06-22T12:24:05;21.17;;;13.55;;
41875;SDS011;27555;50.808;4.402;2023-06-22T12:26:31;20.45;;;14.23;;
41875;SDS011;27555;50.808;4.402;2023-06-22T12:28:57;18.67;;;14.45;;
41875;SDS011;27555;50.808;4.402;2023-06-22T12:31:22;21.65;;;15.13;;
41875;SDS011;27555;50.808;4.402;2023-06-22T12:33:48;17.17;;;14.05;;
41875;SDS011;27555;50.808;4.402;2023-06-22T12:36:13;21.05;;;15.40;;
41875;SDS011;27555;50.808;4.402;2023-06-22T12:38:41;21.48;;;16.30;;
41875;SDS011;27555;50.808;4.402;2023-06-22T12:41:06;19.55;;;14.55;;
41875;SDS011;27555;50.808;4.402;2023-06-22T12:43:32;30.67;;;18.33;;
41875;SDS011;27555;50.808;4.402;2023-06-22T12:45:58;25.65;;;16.77;;
41875;SDS011;27555;50.808;4.402;2023-06-22T12:48:25;21.02;;;16.17;;
41875;SDS011;27555;50.808;4.402;2023-06-22T12:50:51;19.95;;;16.65;;
41875;SDS011;27555;50.808;4.402;2023-06-22T12:53:16;23.35;;;15.90;;
41875;SDS011;27555;50.808;4.402;2023-06-22T12:55:42;24.40;;;17.70;;
41875;SDS011;27555;50.808;4.402;2023-06-22T12:58:08;22.52;;;16.67;;
41875;SDS011;27555;50.808;4.402;2023-06-22T13:00:33;23.83;;;16.92;;
41875;SDS011;27555;50.808;4.402;2023-06-22T13:02:59;23.60;;;17.48;;
41875;SDS011;27555;50.808;4.402;2023-06-22T13:05:24;25.10;;;18.33;;
41875;SDS011;27555;50.808;4.402;2023-06-22T13:07:50;24.27;;;17.52;;
41875;SDS011;27555;50.808;4.402;2023-06-22T13:10:15;25.85;;;18.45;;
41875;SDS011;27555;50.808;4.402;2023-06-22T13:12:41;25.92;;;19.40;;
41875;SDS011;27555;50.808;4.402;2023-06-22T13:15:07;28.65;;;18.75;;
41875;SDS011;27555;50.808;4.402;2023-06-22T13:17:32;28.15;;;18.65;;
41875;SDS011;27555;50.808;4.402;2023-06-22T13:19:58;32.83;;;20.85;;
41875;SDS011;27555;50.808;4.402;2023-06-22T13:25:04;27.58;;;18.38;;
41875;SDS011;27555;50.808;4.402;2023-06-22T13:27:31;26.10;;;19.02;;
41875;SDS011;27555;50.808;4.402;2023-06-22T13:29:57;25.98;;;19.58;;
41875;SDS011;27555;50.808;4.402;2023-06-22T13:32:22;29.25;;;19.83;;
41875;SDS011;27555;50.808;4.402;2023-06-22T13:34:48;35.42;;;20.98;;
41875;SDS011;27555;50.808;4.402;2023-06-22T13:37:14;26.08;;;18.98;;
41875;SDS011;27555;50.808;4.402;2023-06-22T13:39:39;23.98;;;17.88;;
41875;SDS011;27555;50.808;4.402;2023-06-22T13:42:05;26.65;;;19.55;;
41875;SDS011;27555;50.808;4.402;2023-06-22T13:44:31;26.13;;;19.80;;
41875;SDS011;27555;50.808;4.402;2023-06-22T13:46:56;26.50;;;18.70;;
41875;SDS011;27555;50.808;4.402;2023-06-22T13:49:22;28.55;;;20.38;;
41875;SDS011;27555;50.808;4.402;2023-06-22T13:51:47;25.58;;;18.02;;
41875;SDS011;27555;50.808;4.402;2023-06-22T13:54:13;20.48;;;16.75;;
41875;SDS011;27555;50.808;4.402;2023-06-22T13:56:39;23.50;;;17.92;;
41875;SDS011;27555;50.808;4.402;2023-06-22T13:59:05;21.13;;;15.90;;
41875;SDS011;27555;50.808;4.402;2023-06-22T14:01:34;24.20;;;16.60;;
41875;SDS011;27555;50.808;4.402;2023-06-22T14:03:59;27.52;;;17.75;;
41875;SDS011;27555;50.808;4.402;2023-06-22T14:06:27;25.27;;;17.85;;
41875;SDS011;27555;50.808;4.402;2023-06-22T14:08:53;25.30;;;18.75;;
41875;SDS011;27555;50.808;4.402;2023-06-22T14:11:18;23.20;;;18.10;;
41875;SDS011;27555;50.808;4.402;2023-06-22T14:13:44;26.65;;;17.95;;
41875;SDS011;27555;50.808;4.402;2023-06-22T14:16:09;24.38;;;17.95;;
41875;SDS011;27555;50.808;4.402;2023-06-22T14:18:35;22.15;;;16.95;;
41875;SDS011;27555;50.808;4.402;2023-06-22T14:21:00;22.58;;;16.88;;
41875;SDS011;27555;50.808;4.402;2023-06-22T14:23:26;25.13;;;17.52;;
41875;SDS011;27555;50.808;4.402;2023-06-22T14:25:52;24.67;;;17.50;;
41875;SDS011;27555;50.808;4.402;2023-06-22T14:28:18;23.90;;;17.38;;
41875;SDS011;27555;50.808;4.402;2023-06-22T14:30:43;24.00;;;16.98;;
41875;SDS011;27555;50.808;4.402;2023-06-22T14:33:09;26.95;;;18.83;;
41875;SDS011;27555;50.808;4.402;2023-06-22T14:35:35;24.98;;;17.90;;
41875;SDS011;27555;50.808;4.402;2023-06-22T14:38:01;25.35;;;18.05;;
41875;SDS011;27555;50.808;4.402;2023-06-22T14:40:26;26.70;;;18.27;;